sensor_id;sensor_type;location;lat;lon;timestamp;pressure;altitude;pressure_sealevel;temperature;humidity
9521;BME280;4798;41.574;23.734;2023-04-09T00:01:58;95537.66;;;8.38;90.43
9521;BME280;4798;41.574;23.734;2023-04-09T00:04:26;95522.31;;;8.13;91.92
9521;BME280;4798;41.574;23.734;2023-04-09T00:06:54;95499.66;;;7.91;93.10
9521;BME280;4798;41.574;23.734;2023-04-09T00:09:23;95553.75;;;8.15;93.81
9521;BME280;4798;41.574;23.734;2023-04-09T00:11:51;95548.56;;;7.98;95.47
9521;BME280;4798;41.574;23.734;2023-04-09T00:14:19;95552.38;;;7.86;97.36
9521;BME280;4798;41.574;23.734;2023-04-09T00:16:48;95547.59;;;8.04;95.74
9521;BME280;4798;41.574;23.734;2023-04-09T00:19:18;95548.19;;;8.11;94.16
9521;BME280;4798;41.574;23.734;2023-04-09T00:21:46;95551.69;;;8.17;93.11
9521;BME280;4798;41.574;23.734;2023-04-09T00:24:15;95555.91;;;8.18;92.95
9521;BME280;4798;41.574;23.734;2023-04-09T00:26:43;95552.44;;;8.17;92.57
9521;BME280;4798;41.574;23.734;2023-04-09T00:29:12;95556.03;;;8.06;93.66
9521;BME280;4798;41.574;23.734;2023-04-09T00:31:40;95551.06;;;8.10;92.31
9521;BME280;4798;41.574;23.734;2023-04-09T00:34:08;95558.44;;;8.08;91.12
9521;BME280;4798;41.574;23.734;2023-04-09T00:36:38;95551.50;;;8.02;91.71
9521;BME280;4798;41.574;23.734;2023-04-09T00:39:07;95545.97;;;8.03;92.16
9521;BME280;4798;41.574;23.734;2023-04-09T00:41:35;95493.84;;;7.67;91.69
9521;BME280;4798;41.574;23.734;2023-04-09T00:44:03;95543.59;;;8.02;91.03
9521;BME280;4798;41.574;23.734;2023-04-09T00:46:31;95552.91;;;7.88;91.73
9521;BME280;4798;41.574;23.734;2023-04-09T00:49:00;95550.59;;;7.69;91.92
9521;BME280;4798;41.574;23.734;2023-04-09T00:51:28;95556.91;;;7.90;91.94
9521;BME280;4798;41.574;23.734;2023-04-09T00:53:58;95558.31;;;7.98;90.37
9521;BME280;4798;41.574;23.734;2023-04-09T00:56:27;95481.75;;;7.49;90.57
9521;BME280;4798;41.574;23.734;2023-04-09T00:58:56;95544.06;;;7.77;92.57
9521;BME280;4798;41.574;23.734;2023-04-09T01:01:25;95512.56;;;7.65;91.28
9521;BME280;4798;41.574;23.734;2023-04-09T01:03:53;95515.56;;;7.74;90.85
9521;BME280;4798;41.574;23.734;2023-04-09T01:06:28;95521.06;;;7.73;90.81
9521;BME280;4798;41.574;23.734;2023-04-09T01:09:05;95562.00;;;7.97;90.91
9521;BME280;4798;41.574;23.734;2023-04-09T01:11:37;95573.00;;;7.89;92.78
9521;BME280;4798;41.574;23.734;2023-04-09T01:14:15;95563.41;;;7.83;92.93
9521;BME280;4798;41.574;23.734;2023-04-09T01:16:52;95552.19;;;7.92;92.42
9521;BME280;4798;41.574;23.734;2023-04-09T01:19:34;95553.19;;;7.86;92.91
9521;BME280;4798;41.574;23.734;2023-04-09T01:22:12;95554.88;;;7.97;92.44
9521;BME280;4798;41.574;23.734;2023-04-09T01:24:50;95555.38;;;7.94;91.68
9521;BME280;4798;41.574;23.734;2023-04-09T01:27:28;95549.03;;;7.95;91.41
9521;BME280;4798;41.574;23.734;2023-04-09T01:30:03;95557.16;;;7.89;91.68
9521;BME280;4798;41.574;23.734;2023-04-09T01:32:33;95550.88;;;7.95;90.95
9521;BME280;4798;41.574;23.734;2023-04-09T01:35:05;95538.31;;;7.80;92.14
9521;BME280;4798;41.574;23.734;2023-04-09T01:37:34;95515.25;;;7.71;92.04
9521;BME280;4798;41.574;23.734;2023-04-09T01:40:04;95545.00;;;7.88;91.15
9521;BME280;4798;41.574;23.734;2023-04-09T01:42:34;95541.56;;;7.87;90.32
9521;BME280;4798;41.574;23.734;2023-04-09T01:45:06;95549.63;;;7.76;91.51
9521;BME280;4798;41.574;23.734;2023-04-09T01:47:35;95472.09;;;7.33;91.98
9521;BME280;4798;41.574;23.734;2023-04-09T01:50:04;95538.00;;;7.55;93.04
9521;BME280;4798;41.574;23.734;2023-04-09T01:52:33;95543.53;;;7.53;94.94
9521;BME280;4798;41.574;23.734;2023-04-09T01:55:02;95535.72;;;7.42;94.15
9521;BME280;4798;41.574;23.734;2023-04-09T01:57:30;95547.72;;;7.33;97.23
9521;BME280;4798;41.574;23.734;2023-04-09T01:59:59;95548.88;;;7.58;95.11
9521;BME280;4798;41.574;23.734;2023-04-09T02:02:33;95537.31;;;7.64;93.42
9521;BME280;4798;41.574;23.734;2023-04-09T02:05:06;95507.84;;;7.46;93.78
9521;BME280;4798;41.574;23.734;2023-04-09T02:07:40;95547.81;;;7.38;98.73
9521;BME280;4798;41.574;23.734;2023-04-09T02:10:12;95544.84;;;7.34;99.50
9521;BME280;4798;41.574;23.734;2023-04-09T02:12:47;95548.41;;;7.45;99.45
9521;BME280;4798;41.574;23.734;2023-04-09T02:15:18;95551.94;;;7.50;98.76
9521;BME280;4798;41.574;23.734;2023-04-09T02:17:48;95558.44;;;7.26;100.00
9521;BME280;4798;41.574;23.734;2023-04-09T02:20:17;95553.94;;;7.05;100.00
9521;BME280;4798;41.574;23.734;2023-04-09T02:22:45;95559.91;;;6.67;100.00
9521;BME280;4798;41.574;23.734;2023-04-09T02:25:14;95549.72;;;6.43;100.00
9521;BME280;4798;41.574;23.734;2023-04-09T02:27:42;95553.97;;;6.44;100.00
9521;BME280;4798;41.574;23.734;2023-04-09T02:30:11;95543.91;;;6.40;100.00
9521;BME280;4798;41.574;23.734;2023-04-09T02:32:39;95545.72;;;6.85;100.00
9521;BME280;4798;41.574;23.734;2023-04-09T02:35:09;95544.13;;;7.00;100.00
9521;BME280;4798;41.574;23.734;2023-04-09T02:37:37;95532.19;;;7.15;100.00
9521;BME280;4798;41.574;23.734;2023-04-09T02:40:06;95548.81;;;7.15;100.00
9521;BME280;4798;41.574;23.734;2023-04-09T02:42:35;95544.66;;;7.02;100.00
9521;BME280;4798;41.574;23.734;2023-04-09T02:45:03;95542.97;;;6.96;100.00
9521;BME280;4798;41.574;23.734;2023-04-09T02:47:32;95527.19;;;6.96;100.00
9521;BME280;4798;41.574;23.734;2023-04-09T02:50:00;95548.66;;;7.05;100.00
9521;BME280;4798;41.574;23.734;2023-04-09T02:52:30;95538.91;;;7.06;100.00
9521;BME280;4798;41.574;23.734;2023-04-09T02:54:58;95532.91;;;7.10;100.00
9521;BME280;4798;41.574;23.734;2023-04-09T02:57:26;95533.72;;;6.94;100.00
9521;BME280;4798;41.574;23.734;2023-04-09T02:59:56;95525.66;;;7.00;100.00
9521;BME280;4798;41.574;23.734;2023-04-09T03:02:24;95544.88;;;7.01;100.00
9521;BME280;4798;41.574;23.734;2023-04-09T03:04:53;95533.91;;;6.87;100.00
9521;BME280;4798;41.574;23.734;2023-04-09T03:07:21;95548.03;;;6.98;100.00
9521;BME280;4798;41.574;23.734;2023-04-09T03:09:51;95513.28;;;6.51;100.00
9521;BME280;4798;41.574;23.734;2023-04-09T03:12:19;95543.41;;;6.55;100.00
9521;BME280;4798;41.574;23.734;2023-04-09T03:14:47;95538.28;;;6.82;100.00
9521;BME280;4798;41.574;23.734;2023-04-09T03:17:16;95542.75;;;6.98;100.00
9521;BME280;4798;41.574;23.734;2023-04-09T03:19:44;95535.00;;;7.08;100.00
9521;BME280;4798;41.574;23.734;2023-04-09T03:22:12;95536.28;;;6.89;100.00
9521;BME280;4798;41.574;23.734;2023-04-09T03:24:41;95535.81;;;6.92;100.00
9521;BME280;4798;41.574;23.734;2023-04-09T03:27:10;95521.75;;;7.03;100.00
9521;BME280;4798;41.574;23.734;2023-04-09T03:29:39;95518.69;;;7.11;100.00
9521;BME280;4798;41.574;23.734;2023-04-09T03:32:07;95478.19;;;6.79;99.78
9521;BME280;4798;41.574;23.734;2023-04-09T03:34:35;95527.09;;;7.08;99.13
9521;BME280;4798;41.574;23.734;2023-04-09T03:37:04;95531.94;;;7.16;99.35
9521;BME280;4798;41.574;23.734;2023-04-09T03:39:32;95537.84;;;7.23;98.58
9521;BME280;4798;41.574;23.734;2023-04-09T03:42:00;95544.22;;;7.27;99.79
9521;BME280;4798;41.574;23.734;2023-04-09T03:44:30;95542.91;;;7.46;98.33
9521;BME280;4798;41.574;23.734;2023-04-09T03:46:58;95540.72;;;7.60;95.79
9521;BME280;4798;41.574;23.734;2023-04-09T03:49:27;95545.50;;;7.63;95.02
9521;BME280;4798;41.574;23.734;2023-04-09T03:51:55;95545.41;;;7.36;96.49
9521;BME280;4798;41.574;23.734;2023-04-09T03:54:24;95551.69;;;6.97;100.00
9521;BME280;4798;41.574;23.734;2023-04-09T03:56:52;95552.56;;;6.69;100.00
9521;BME280;4798;41.574;23.734;2023-04-09T03:59:22;95551.38;;;6.77;100.00
9521;BME280;4798;41.574;23.734;2023-04-09T04:01:52;95555.38;;;6.63;100.00
9521;BME280;4798;41.574;23.734;2023-04-09T04:04:20;95554.78;;;6.44;100.00
9521;BME280;4798;41.574;23.734;2023-04-09T04:06:49;95558.59;;;6.36;100.00
9521;BME280;4798;41.574;23.734;2023-04-09T04:09:18;95533.84;;;6.37;100.00
9521;BME280;4798;41.574;23.734;2023-04-09T04:11:46;95565.34;;;6.94;100.00
9521;BME280;4798;41.574;23.734;2023-04-09T04:14:14;95564.78;;;6.92;100.00
9521;BME280;4798;41.574;23.734;2023-04-09T04:16:43;95545.56;;;6.75;100.00
9521;BME280;4798;41.574;23.734;2023-04-09T04:19:12;95564.00;;;7.08;100.00
9521;BME280;4798;41.574;23.734;2023-04-09T04:21:41;95529.91;;;6.85;100.00
9521;BME280;4798;41.574;23.734;2023-04-09T04:24:09;95554.66;;;7.00;100.00
9521;BME280;4798;41.574;23.734;2023-04-09T04:26:38;95581.25;;;7.16;100.00
9521;BME280;4798;41.574;23.734;2023-04-09T04:29:07;95572.59;;;7.20;100.00
9521;BME280;4798;41.574;23.734;2023-04-09T04:31:35;95572.75;;;7.14;100.00
9521;BME280;4798;41.574;23.734;2023-04-09T04:34:04;95567.88;;;7.22;100.00
9521;BME280;4798;41.574;23.734;2023-04-09T04:36:33;95573.03;;;7.34;100.00
9521;BME280;4798;41.574;23.734;2023-04-09T04:39:03;95568.66;;;7.39;100.00
9521;BME280;4798;41.574;23.734;2023-04-09T04:41:31;95546.31;;;7.25;100.00
9521;BME280;4798;41.574;23.734;2023-04-09T04:44:00;95570.47;;;7.55;99.79
9521;BME280;4798;41.574;23.734;2023-04-09T04:46:28;95572.16;;;7.66;99.17
9521;BME280;4798;41.574;23.734;2023-04-09T04:48:56;95566.97;;;7.72;99.36
9521;BME280;4798;41.574;23.734;2023-04-09T04:51:29;95570.22;;;7.79;98.85
9521;BME280;4798;41.574;23.734;2023-04-09T04:53:59;95573.00;;;7.89;98.03
9521;BME280;4798;41.574;23.734;2023-04-09T04:56:28;95565.03;;;7.84;96.58
9521;BME280;4798;41.574;23.734;2023-04-09T04:58:57;95571.22;;;7.94;97.02
9521;BME280;4798;41.574;23.734;2023-04-09T05:01:25;95573.78;;;8.11;95.83
9521;BME280;4798;41.574;23.734;2023-04-09T05:03:53;95575.13;;;8.13;96.39
9521;BME280;4798;41.574;23.734;2023-04-09T05:06:22;95574.28;;;8.29;94.76
9521;BME280;4798;41.574;23.734;2023-04-09T05:08:52;95563.16;;;8.27;94.23
9521;BME280;4798;41.574;23.734;2023-04-09T05:11:25;95515.09;;;8.04;93.29
9521;BME280;4798;41.574;23.734;2023-04-09T05:13:53;95578.22;;;8.27;94.21
9521;BME280;4798;41.574;23.734;2023-04-09T05:16:22;95572.94;;;8.54;94.29
9521;BME280;4798;41.574;23.734;2023-04-09T05:18:50;95522.47;;;8.02;95.01
9521;BME280;4798;41.574;23.734;2023-04-09T05:21:19;95579.59;;;8.61;93.77
9521;BME280;4798;41.574;23.734;2023-04-09T05:23:47;95577.16;;;8.81;91.08
9521;BME280;4798;41.574;23.734;2023-04-09T05:26:16;95477.75;;;8.17;92.79
9521;BME280;4798;41.574;23.734;2023-04-09T05:28:46;95580.41;;;9.25;90.71
9521;BME280;4798;41.574;23.734;2023-04-09T05:31:14;95580.13;;;8.90;92.56
9521;BME280;4798;41.574;23.734;2023-04-09T05:33:43;95575.16;;;8.99;92.50
9521;BME280;4798;41.574;23.734;2023-04-09T05:36:14;95557.47;;;8.99;91.22
9521;BME280;4798;41.574;23.734;2023-04-09T05:38:43;95595.16;;;8.58;92.83
9521;BME280;4798;41.574;23.734;2023-04-09T05:41:13;95564.22;;;8.26;95.55
9521;BME280;4798;41.574;23.734;2023-04-09T05:43:42;95597.47;;;8.49;94.80
9521;BME280;4798;41.574;23.734;2023-04-09T05:46:12;95596.97;;;8.52;95.80
9521;BME280;4798;41.574;23.734;2023-04-09T05:48:40;95580.16;;;8.15;97.95
9521;BME280;4798;41.574;23.734;2023-04-09T05:51:08;95594.81;;;8.49;96.74
9521;BME280;4798;41.574;23.734;2023-04-09T05:53:37;95593.31;;;8.85;93.88
9521;BME280;4798;41.574;23.734;2023-04-09T05:56:12;95593.59;;;9.20;90.61
9521;BME280;4798;41.574;23.734;2023-04-09T05:58:41;95596.63;;;9.39;89.34
9521;BME280;4798;41.574;23.734;2023-04-09T06:01:09;95595.09;;;9.48;88.22
9521;BME280;4798;41.574;23.734;2023-04-09T06:03:39;95595.16;;;9.53;88.91
9521;BME280;4798;41.574;23.734;2023-04-09T06:06:08;95597.38;;;9.71;87.46
9521;BME280;4798;41.574;23.734;2023-04-09T06:08:36;95597.13;;;9.78;86.87
9521;BME280;4798;41.574;23.734;2023-04-09T06:11:08;95596.66;;;9.91;85.58
9521;BME280;4798;41.574;23.734;2023-04-09T06:13:36;95589.44;;;9.71;86.76
9521;BME280;4798;41.574;23.734;2023-04-09T06:16:06;95593.66;;;10.24;82.86
9521;BME280;4798;41.574;23.734;2023-04-09T06:18:35;95578.22;;;10.11;82.74
9521;BME280;4798;41.574;23.734;2023-04-09T06:21:06;95585.38;;;10.10;82.27
9521;BME280;4798;41.574;23.734;2023-04-09T06:23:35;95527.84;;;9.39;85.45
9521;BME280;4798;41.574;23.734;2023-04-09T06:26:04;95552.88;;;9.68;86.32
9521;BME280;4798;41.574;23.734;2023-04-09T06:28:32;95592.75;;;9.98;85.61
9521;BME280;4798;41.574;23.734;2023-04-09T06:31:02;95587.53;;;10.13;84.45
9521;BME280;4798;41.574;23.734;2023-04-09T06:33:30;95574.75;;;9.48;87.30
9521;BME280;4798;41.574;23.734;2023-04-09T06:35:58;95599.34;;;9.49;89.60
9521;BME280;4798;41.574;23.734;2023-04-09T06:38:28;95599.84;;;9.41;90.85
9521;BME280;4798;41.574;23.734;2023-04-09T06:40:56;95603.84;;;9.48;90.98
9521;BME280;4798;41.574;23.734;2023-04-09T06:43:25;95596.91;;;9.42;91.11
9521;BME280;4798;41.574;23.734;2023-04-09T06:45:53;95601.56;;;9.25;92.77
9521;BME280;4798;41.574;23.734;2023-04-09T06:48:22;95594.09;;;10.11;89.93
9521;BME280;4798;41.574;23.734;2023-04-09T06:50:50;95602.25;;;9.99;87.14
9521;BME280;4798;41.574;23.734;2023-04-09T06:53:19;95589.97;;;10.35;85.45
9521;BME280;4798;41.574;23.734;2023-04-09T06:55:48;95594.59;;;10.70;84.19
9521;BME280;4798;41.574;23.734;2023-04-09T06:58:17;95586.66;;;11.15;81.23
9521;BME280;4798;41.574;23.734;2023-04-09T07:00:46;95581.06;;;11.22;78.91
9521;BME280;4798;41.574;23.734;2023-04-09T07:03:15;95585.31;;;11.43;78.13
9521;BME280;4798;41.574;23.734;2023-04-09T07:05:43;95593.56;;;12.31;80.56
9521;BME280;4798;41.574;23.734;2023-04-09T07:08:12;95585.56;;;12.85;74.83
9521;BME280;4798;41.574;23.734;2023-04-09T07:10:40;95575.84;;;13.09;73.00
9521;BME280;4798;41.574;23.734;2023-04-09T07:13:10;95580.59;;;13.12;71.56
9521;BME280;4798;41.574;23.734;2023-04-09T07:15:38;95580.91;;;13.10;69.86
9521;BME280;4798;41.574;23.734;2023-04-09T07:18:08;95573.91;;;13.48;68.56
9521;BME280;4798;41.574;23.734;2023-04-09T07:20:36;95573.44;;;13.41;66.65
9521;BME280;4798;41.574;23.734;2023-04-09T07:23:05;95583.03;;;12.64;69.07
9521;BME280;4798;41.574;23.734;2023-04-09T07:25:33;95579.38;;;12.50;70.75
9521;BME280;4798;41.574;23.734;2023-04-09T07:28:02;95569.97;;;13.69;67.72
9521;BME280;4798;41.574;23.734;2023-04-09T07:30:32;95572.78;;;14.86;65.68
9521;BME280;4798;41.574;23.734;2023-04-09T07:33:00;95565.19;;;15.63;62.43
9521;BME280;4798;41.574;23.734;2023-04-09T07:35:28;95566.78;;;15.77;61.42
9521;BME280;4798;41.574;23.734;2023-04-09T07:37:57;95481.34;;;15.13;60.47
9521;BME280;4798;41.574;23.734;2023-04-09T07:40:26;95565.28;;;16.39;58.92
9521;BME280;4798;41.574;23.734;2023-04-09T07:42:54;95558.63;;;16.37;57.67
9521;BME280;4798;41.574;23.734;2023-04-09T07:45:23;95558.47;;;16.33;56.33
9521;BME280;4798;41.574;23.734;2023-04-09T07:47:53;95556.09;;;16.18;56.49
9521;BME280;4798;41.574;23.734;2023-04-09T07:50:22;95552.53;;;15.96;54.70
9521;BME280;4798;41.574;23.734;2023-04-09T07:52:50;95543.66;;;17.65;53.51
9521;BME280;4798;41.574;23.734;2023-04-09T07:55:19;95506.34;;;17.86;50.50
9521;BME280;4798;41.574;23.734;2023-04-09T07:57:47;95543.91;;;17.55;51.57
9521;BME280;4798;41.574;23.734;2023-04-09T08:00:17;95471.53;;;17.25;50.58
9521;BME280;4798;41.574;23.734;2023-04-09T08:02:46;95546.81;;;17.76;51.20
9521;BME280;4798;41.574;23.734;2023-04-09T08:05:16;95547.47;;;16.84;51.31
9521;BME280;4798;41.574;23.734;2023-04-09T08:07:44;95543.84;;;17.77;50.29
9521;BME280;4798;41.574;23.734;2023-04-09T08:10:13;95543.47;;;17.62;49.38
9521;BME280;4798;41.574;23.734;2023-04-09T08:12:42;95549.22;;;17.77;50.86
9521;BME280;4798;41.574;23.734;2023-04-09T08:15:11;95538.41;;;18.39;48.34
9521;BME280;4798;41.574;23.734;2023-04-09T08:17:39;95532.78;;;18.83;47.95
9521;BME280;4798;41.574;23.734;2023-04-09T08:20:08;95527.53;;;19.13;46.15
9521;BME280;4798;41.574;23.734;2023-04-09T08:22:38;95542.59;;;18.79;46.31
9521;BME280;4798;41.574;23.734;2023-04-09T08:25:08;95539.22;;;18.48;45.36
9521;BME280;4798;41.574;23.734;2023-04-09T08:27:37;95543.66;;;18.70;45.04
9521;BME280;4798;41.574;23.734;2023-04-09T08:30:06;95532.25;;;19.58;43.53
9521;BME280;4798;41.574;23.734;2023-04-09T08:32:35;95527.25;;;18.97;45.43
9521;BME280;4798;41.574;23.734;2023-04-09T08:35:04;95527.25;;;18.88;44.55
9521;BME280;4798;41.574;23.734;2023-04-09T08:37:33;95524.25;;;18.64;43.94
9521;BME280;4798;41.574;23.734;2023-04-09T08:40:03;95525.34;;;18.97;44.01
9521;BME280;4798;41.574;23.734;2023-04-09T08:42:33;95521.41;;;18.95;41.33
9521;BME280;4798;41.574;23.734;2023-04-09T08:45:03;95515.22;;;19.92;40.01
9521;BME280;4798;41.574;23.734;2023-04-09T08:47:33;95503.78;;;21.36;39.44
9521;BME280;4798;41.574;23.734;2023-04-09T08:50:04;95498.38;;;21.81;39.98
9521;BME280;4798;41.574;23.734;2023-04-09T08:52:33;95503.03;;;21.93;37.60
9521;BME280;4798;41.574;23.734;2023-04-09T08:55:04;95499.91;;;21.25;36.20
9521;BME280;4798;41.574;23.734;2023-04-09T08:57:36;95509.38;;;21.76;37.25
9521;BME280;4798;41.574;23.734;2023-04-09T09:00:07;95499.78;;;21.55;36.89
9521;BME280;4798;41.574;23.734;2023-04-09T09:02:36;95505.09;;;20.77;38.28
9521;BME280;4798;41.574;23.734;2023-04-09T09:05:06;95496.47;;;20.83;39.12
9521;BME280;4798;41.574;23.734;2023-04-09T09:07:34;95498.69;;;20.61;37.56
9521;BME280;4798;41.574;23.734;2023-04-09T09:10:05;95494.50;;;20.51;37.86
9521;BME280;4798;41.574;23.734;2023-04-09T09:12:36;95476.31;;;19.81;38.77
9521;BME280;4798;41.574;23.734;2023-04-09T09:15:24;95494.81;;;19.45;38.71
9521;BME280;4798;41.574;23.734;2023-04-09T09:17:54;95503.53;;;19.08;39.93
9521;BME280;4798;41.574;23.734;2023-04-09T09:20:24;95493.88;;;19.32;39.33
9521;BME280;4798;41.574;23.734;2023-04-09T09:22:54;95493.53;;;20.26;38.33
9521;BME280;4798;41.574;23.734;2023-04-09T09:25:25;95487.19;;;20.22;38.48
9521;BME280;4798;41.574;23.734;2023-04-09T09:27:53;95485.19;;;19.18;38.40
9521;BME280;4798;41.574;23.734;2023-04-09T09:30:23;95493.94;;;18.89;39.17
9521;BME280;4798;41.574;23.734;2023-04-09T09:32:52;95474.25;;;20.45;37.36
9521;BME280;4798;41.574;23.734;2023-04-09T09:35:21;95477.94;;;20.82;38.94
9521;BME280;4798;41.574;23.734;2023-04-09T09:38:00;95465.25;;;22.17;35.96
9521;BME280;4798;41.574;23.734;2023-04-09T09:40:31;95474.50;;;20.32;36.49
9521;BME280;4798;41.574;23.734;2023-04-09T09:42:59;95465.03;;;21.08;38.09
9521;BME280;4798;41.574;23.734;2023-04-09T09:45:28;95451.25;;;21.55;36.21
9521;BME280;4798;41.574;23.734;2023-04-09T09:47:57;95468.28;;;20.60;36.50
9521;BME280;4798;41.574;23.734;2023-04-09T09:50:27;95461.97;;;21.30;35.42
9521;BME280;4798;41.574;23.734;2023-04-09T09:53:00;95458.28;;;22.16;35.16
9521;BME280;4798;41.574;23.734;2023-04-09T09:55:32;95447.75;;;23.46;35.18
9521;BME280;4798;41.574;23.734;2023-04-09T09:58:11;95445.75;;;23.90;32.86
9521;BME280;4798;41.574;23.734;2023-04-09T10:00:45;95389.41;;;23.33;33.78
9521;BME280;4798;41.574;23.734;2023-04-09T10:03:20;95438.75;;;22.47;33.98
9521;BME280;4798;41.574;23.734;2023-04-09T10:05:50;95441.63;;;22.02;33.88
9521;BME280;4798;41.574;23.734;2023-04-09T10:08:20;95438.59;;;23.23;33.33
9521;BME280;4798;41.574;23.734;2023-04-09T10:10:51;95412.50;;;23.74;32.38
9521;BME280;4798;41.574;23.734;2023-04-09T10:13:23;95427.72;;;22.64;32.81
9521;BME280;4798;41.574;23.734;2023-04-09T10:15:55;95414.19;;;23.19;33.63
9521;BME280;4798;41.574;23.734;2023-04-09T10:18:24;95414.72;;;22.97;33.78
9521;BME280;4798;41.574;23.734;2023-04-09T10:20:57;95419.69;;;22.67;35.11
9521;BME280;4798;41.574;23.734;2023-04-09T10:23:31;95421.47;;;22.11;35.72
9521;BME280;4798;41.574;23.734;2023-04-09T10:26:04;95415.91;;;23.12;35.14
9521;BME280;4798;41.574;23.734;2023-04-09T10:28:32;95406.97;;;21.80;33.64
9521;BME280;4798;41.574;23.734;2023-04-09T10:31:03;95412.91;;;21.61;34.10
9521;BME280;4798;41.574;23.734;2023-04-09T10:33:32;95406.88;;;22.64;33.69
9521;BME280;4798;41.574;23.734;2023-04-09T10:36:04;95403.03;;;22.93;34.04
9521;BME280;4798;41.574;23.734;2023-04-09T10:38:34;95403.03;;;22.01;34.28
9521;BME280;4798;41.574;23.734;2023-04-09T10:41:10;95401.72;;;20.81;35.29
9521;BME280;4798;41.574;23.734;2023-04-09T10:43:41;95408.34;;;19.26;37.20
9521;BME280;4798;41.574;23.734;2023-04-09T10:46:25;95397.94;;;19.71;37.01
9521;BME280;4798;41.574;23.734;2023-04-09T10:49:10;95398.69;;;20.00;39.11
9521;BME280;4798;41.574;23.734;2023-04-09T10:51:40;95392.66;;;19.74;37.02
9521;BME280;4798;41.574;23.734;2023-04-09T10:54:38;95392.09;;;20.18;37.58
9521;BME280;4798;41.574;23.734;2023-04-09T10:57:12;95392.41;;;20.17;41.14
9521;BME280;4798;41.574;23.734;2023-04-09T10:59:42;95391.09;;;18.03;39.11
9521;BME280;4798;41.574;23.734;2023-04-09T11:05:21;95333.72;;;17.08;41.12
9521;BME280;4798;41.574;23.734;2023-04-09T11:07:55;95388.25;;;16.60;42.19
9521;BME280;4798;41.574;23.734;2023-04-09T11:10:25;95391.78;;;16.46;43.30
9521;BME280;4798;41.574;23.734;2023-04-09T11:12:55;95394.84;;;17.06;43.35
9521;BME280;4798;41.574;23.734;2023-04-09T11:15:24;95391.88;;;16.77;43.00
9521;BME280;4798;41.574;23.734;2023-04-09T11:17:53;95387.38;;;16.64;43.53
9521;BME280;4798;41.574;23.734;2023-04-09T11:20:22;95375.59;;;17.35;42.87
9521;BME280;4798;41.574;23.734;2023-04-09T11:22:52;95370.69;;;17.94;42.04
9521;BME280;4798;41.574;23.734;2023-04-09T11:25:22;95361.66;;;17.16;42.08
9521;BME280;4798;41.574;23.734;2023-04-09T11:27:51;95388.16;;;17.26;41.64
9521;BME280;4798;41.574;23.734;2023-04-09T11:30:21;95363.69;;;17.58;41.45
9521;BME280;4798;41.574;23.734;2023-04-09T11:32:50;95310.03;;;17.41;40.85
9521;BME280;4798;41.574;23.734;2023-04-09T11:35:20;95383.13;;;17.81;41.71
9521;BME280;4798;41.574;23.734;2023-04-09T11:37:49;95370.75;;;17.06;41.47
9521;BME280;4798;41.574;23.734;2023-04-09T11:40:20;95378.91;;;16.71;41.95
9521;BME280;4798;41.574;23.734;2023-04-09T11:42:50;95383.44;;;16.26;42.38
9521;BME280;4798;41.574;23.734;2023-04-09T11:45:21;95384.50;;;16.61;42.75
9521;BME280;4798;41.574;23.734;2023-04-09T11:47:50;95370.03;;;16.62;42.59
9521;BME280;4798;41.574;23.734;2023-04-09T11:50:19;95370.81;;;16.04;43.66
9521;BME280;4798;41.574;23.734;2023-04-09T11:52:48;95377.28;;;16.03;43.98
9521;BME280;4798;41.574;23.734;2023-04-09T11:55:23;95352.13;;;16.26;44.00
9521;BME280;4798;41.574;23.734;2023-04-09T11:57:55;95369.88;;;16.89;43.36
9521;BME280;4798;41.574;23.734;2023-04-09T12:00:25;95368.13;;;17.24;42.87
9521;BME280;4798;41.574;23.734;2023-04-09T12:02:59;95369.28;;;17.00;43.88
9521;BME280;4798;41.574;23.734;2023-04-09T12:05:30;95365.09;;;16.77;44.58
9521;BME280;4798;41.574;23.734;2023-04-09T12:08:00;95319.28;;;16.34;44.70
9521;BME280;4798;41.574;23.734;2023-04-09T12:10:32;95333.06;;;16.94;43.71
9521;BME280;4798;41.574;23.734;2023-04-09T12:13:01;95359.28;;;16.39;44.44
9521;BME280;4798;41.574;23.734;2023-04-09T12:15:33;95364.72;;;15.90;43.79
9521;BME280;4798;41.574;23.734;2023-04-09T12:18:02;95361.47;;;16.37;43.57
9521;BME280;4798;41.574;23.734;2023-04-09T12:20:32;95334.81;;;16.99;42.78
9521;BME280;4798;41.574;23.734;2023-04-09T12:23:02;95333.22;;;16.98;42.96
9521;BME280;4798;41.574;23.734;2023-04-09T12:25:33;95357.84;;;16.78;42.93
9521;BME280;4798;41.574;23.734;2023-04-09T12:28:03;95357.25;;;16.59;42.82
9521;BME280;4798;41.574;23.734;2023-04-09T12:30:34;95356.75;;;17.09;42.76
9521;BME280;4798;41.574;23.734;2023-04-09T12:33:02;95342.50;;;16.70;42.28
9521;BME280;4798;41.574;23.734;2023-04-09T12:35:32;95362.28;;;16.60;42.91
9521;BME280;4798;41.574;23.734;2023-04-09T12:38:01;95351.69;;;16.11;42.52
9521;BME280;4798;41.574;23.734;2023-04-09T12:40:30;95343.44;;;16.21;44.13
9521;BME280;4798;41.574;23.734;2023-04-09T12:42:59;95336.94;;;16.35;43.72
9521;BME280;4798;41.574;23.734;2023-04-09T12:45:28;95362.19;;;16.07;44.97
9521;BME280;4798;41.574;23.734;2023-04-09T12:47:58;95327.56;;;15.66;44.61
9521;BME280;4798;41.574;23.734;2023-04-09T12:50:27;95359.84;;;16.06;44.77
9521;BME280;4798;41.574;23.734;2023-04-09T12:52:55;95359.28;;;15.95;44.97
9521;BME280;4798;41.574;23.734;2023-04-09T12:55:23;95345.31;;;16.20;44.27
9521;BME280;4798;41.574;23.734;2023-04-09T12:57:51;95351.53;;;16.51;43.68
9521;BME280;4798;41.574;23.734;2023-04-09T13:00:20;95346.09;;;16.87;43.85
9521;BME280;4798;41.574;23.734;2023-04-09T13:02:48;95328.91;;;16.58;43.70
9521;BME280;4798;41.574;23.734;2023-04-09T13:05:20;95342.38;;;16.75;42.82
9521;BME280;4798;41.574;23.734;2023-04-09T13:07:48;95332.72;;;16.96;42.27
9521;BME280;4798;41.574;23.734;2023-04-09T13:10:17;95332.31;;;17.11;42.23
9521;BME280;4798;41.574;23.734;2023-04-09T13:12:46;95338.69;;;16.93;42.62
9521;BME280;4798;41.574;23.734;2023-04-09T13:15:14;95327.94;;;17.15;42.18
9521;BME280;4798;41.574;23.734;2023-04-09T13:17:42;95330.31;;;16.86;42.03
9521;BME280;4798;41.574;23.734;2023-04-09T13:20:11;95329.25;;;16.42;42.51
9521;BME280;4798;41.574;23.734;2023-04-09T13:22:41;95323.13;;;16.95;41.98
9521;BME280;4798;41.574;23.734;2023-04-09T13:25:12;95320.06;;;17.19;41.98
9521;BME280;4798;41.574;23.734;2023-04-09T13:27:41;95293.47;;;16.83;41.97
9521;BME280;4798;41.574;23.734;2023-04-09T13:30:09;95326.56;;;16.87;42.45
9521;BME280;4798;41.574;23.734;2023-04-09T13:32:38;95325.06;;;16.72;42.97